aviador You're here:

KHLR Decoded Metar

FORT HOOD in TX, USA
Report Time2017-06-29 12:07:00
UTC Time2017-06-29 12:28:46
Flight Rules vfr VFR
Wind150° at 03 kt
W.Decomp.*RWY 16: 2.9 kt HW 0.8 kt LCW
W.Rank150° ranks 1
Current wind is below 150° avg. (8.4)
Visibility9999 m
Phenomena:N/A
Clouds:Few 004 Hf
Expected CloudBase > 400 ft AGL from Temp-Dew spread
CeilingNone
Temp22°C (ISA +9)
Dew Point21°C (94% RH)
QNH1011 hPa
Density Alt2,359 ft
Elevation928 ft
Report Wrong Elevation
Raw Report
KHLR 291207Z AUTO 15003KT 9SM FEW004 22/21 A2985 RMK AO2
SLP096=

Extra information for KHLR:More info

Metar Taf Metar & Taf Last 4 Metars F.Rules Stats Wind Profile Meteogram Temp Stats Airport Information Weather charts Add Link Nearby VenuesMetar ALERT Operation Metar Decoded Social comments

AIRNAV info for KHLR